createdAt,value
2022-08-12T00:02:10.619Z,41.21
2022-08-12T00:04:37.007Z,41.15
2022-08-12T00:07:03.396Z,41.12
2022-08-12T00:09:29.780Z,41.18
2022-08-12T00:11:56.155Z,41.21
2022-08-12T00:14:22.570Z,41.31
2022-08-12T00:16:48.952Z,41.25
2022-08-12T00:19:15.358Z,41.17
2022-08-12T00:21:41.735Z,41.41
2022-08-12T00:24:08.118Z,41.25
2022-08-12T00:26:34.500Z,41.31
2022-08-12T00:29:00.885Z,41.36
2022-08-12T00:31:27.342Z,41.28
2022-08-12T00:33:53.725Z,41.30
2022-08-12T00:36:34.693Z,41.27
2022-08-12T00:38:46.495Z,41.35
2022-08-12T00:41:12.879Z,41.25
2022-08-12T00:43:39.260Z,41.34
2022-08-12T00:46:05.648Z,41.25
2022-08-12T00:48:32.026Z,41.31
2022-08-12T00:50:58.411Z,41.29
2022-08-12T00:53:24.789Z,41.28
2022-08-12T00:55:51.175Z,41.30
2022-08-12T00:58:17.597Z,41.33
2022-08-12T01:00:43.987Z,41.46
2022-08-12T01:03:10.365Z,41.30
2022-08-12T01:05:36.760Z,41.48
2022-08-12T01:08:03.146Z,41.37
2022-08-12T01:10:32.936Z,41.46
2022-08-12T01:12:55.992Z,41.34
2022-08-12T01:15:22.373Z,41.28
2022-08-12T01:17:48.758Z,41.74
2022-08-12T01:20:15.144Z,41.30
2022-08-12T01:22:41.637Z,41.28
2022-08-12T01:25:07.908Z,41.28
2022-08-12T01:27:34.286Z,41.28
2022-08-12T01:30:00.671Z,41.28
2022-08-12T01:32:27.054Z,41.25
2022-08-12T01:34:53.439Z,41.34
2022-08-12T01:37:19.820Z,41.45
2022-08-12T01:40:31.555Z,41.30
2022-08-12T01:42:12.602Z,41.29
2022-08-12T01:44:38.987Z,41.44
2022-08-12T01:47:05.366Z,41.36
2022-08-12T01:49:31.751Z,41.49
2022-08-12T01:52:15.001Z,41.37
2022-08-12T01:54:24.607Z,41.30
2022-08-12T01:56:50.997Z,41.45
2022-08-12T01:59:17.382Z,41.37
2022-08-12T02:01:43.811Z,41.50
2022-08-12T02:04:10.287Z,41.38
2022-08-12T02:06:36.677Z,41.30
2022-08-12T02:09:03.053Z,41.34
2022-08-12T02:11:29.436Z,41.46
2022-08-12T02:13:55.832Z,41.53
2022-08-12T02:16:22.212Z,41.59
2022-08-12T02:18:48.624Z,41.61
2022-08-12T02:21:15.004Z,41.55
2022-08-12T02:23:41.408Z,41.50
2022-08-12T02:26:07.790Z,41.44
2022-08-12T02:28:34.199Z,41.41
2022-08-12T02:31:00.647Z,41.42
2022-08-12T02:33:27.030Z,41.39
2022-08-12T02:35:53.500Z,41.40
2022-08-12T02:38:19.887Z,41.44
2022-08-12T02:40:46.271Z,41.53
2022-08-12T02:43:14.347Z,41.60
2022-08-12T02:45:39.046Z,41.62
2022-08-12T02:48:05.424Z,41.73
2022-08-12T02:50:31.801Z,41.86
2022-08-12T02:52:58.190Z,41.92
2022-08-12T02:55:28.398Z,41.94
2022-08-12T02:57:50.953Z,42.02
2022-08-12T03:00:17.336Z,42.06
2022-08-12T03:02:43.719Z,42.07
2022-08-12T03:05:10.093Z,42.08
2022-08-12T03:07:59.788Z,42.15
2022-08-12T03:10:05.542Z,42.21
2022-08-12T03:12:48.736Z,42.32
2022-08-12T03:14:55.739Z,42.37
2022-08-12T03:17:22.126Z,42.44
2022-08-12T03:20:08.653Z,42.42
2022-08-12T03:22:14.893Z,42.39
2022-08-12T03:24:41.285Z,42.37
2022-08-12T03:27:10.112Z,42.42
2022-08-12T03:29:49.717Z,42.44
2022-08-12T03:32:00.452Z,42.54
2022-08-12T03:34:26.826Z,42.63
2022-08-12T03:36:53.208Z,42.68
2022-08-12T03:39:19.633Z,42.63
2022-08-12T03:41:46.007Z,42.66
2022-08-12T03:44:12.393Z,42.66
2022-08-12T03:46:38.775Z,42.63
2022-08-12T03:49:05.272Z,42.73
2022-08-12T03:51:31.661Z,42.73
2022-08-12T03:53:58.045Z,42.89
2022-08-12T03:56:24.435Z,42.92
2022-08-12T03:58:50.810Z,43.02
2022-08-12T04:01:17.278Z,43.09
2022-08-12T04:03:43.616Z,43.06
2022-08-12T04:06:10.035Z,43.02
2022-08-12T04:08:36.412Z,43.13
2022-08-12T04:11:02.987Z,43.21
2022-08-12T04:13:29.365Z,43.40
2022-08-12T04:15:55.796Z,47.52
2022-08-12T04:18:22.164Z,44.85
2022-08-12T04:20:48.623Z,44.08
2022-08-12T04:23:16.617Z,43.97
2022-08-12T04:25:41.387Z,44.08
2022-08-12T04:28:13.187Z,44.24
2022-08-12T04:30:34.160Z,44.19
2022-08-12T04:33:00.543Z,44.18
2022-08-12T04:35:26.922Z,44.37
2022-08-12T04:37:58.402Z,44.33
2022-08-12T04:40:28.457Z,44.36
2022-08-12T04:42:46.102Z,44.33
2022-08-12T04:45:12.478Z,44.30
2022-08-12T04:47:38.876Z,44.34
2022-08-12T04:50:05.259Z,44.29
2022-08-12T04:52:34.847Z,44.27
2022-08-12T04:54:58.093Z,44.28
2022-08-12T04:57:24.514Z,44.27
2022-08-12T04:59:51.829Z,44.45
2022-08-12T05:02:20.969Z,44.50
2022-08-12T05:04:43.680Z,44.50
2022-08-12T05:07:10.115Z,44.46
2022-08-12T05:09:59.868Z,44.48
2022-08-12T05:12:02.887Z,44.45
2022-08-12T05:14:29.269Z,44.46
2022-08-12T05:16:55.655Z,44.46
2022-08-12T05:19:22.582Z,44.45
2022-08-12T05:21:48.437Z,44.59
2022-08-12T05:24:14.815Z,44.62
2022-08-12T05:26:41.210Z,44.69
2022-08-12T05:30:07.638Z,44.79
2022-08-12T05:31:40.600Z,44.71
2022-08-12T05:34:00.494Z,44.72
2022-08-12T05:36:26.881Z,44.64
2022-08-12T05:38:53.256Z,44.71
2022-08-12T05:41:19.671Z,44.72
2022-08-12T05:43:46.214Z,44.86
2022-08-12T05:46:12.633Z,44.84
2022-08-12T05:48:39.009Z,45.01
2022-08-12T05:51:05.404Z,44.99
2022-08-12T05:53:31.802Z,44.95
2022-08-12T05:55:58.201Z,45.01
2022-08-12T05:58:24.580Z,45.04
2022-08-12T06:00:50.966Z,45.04
2022-08-12T06:03:17.601Z,44.99
2022-08-12T06:05:54.820Z,44.96
2022-08-12T06:08:10.138Z,45.01
2022-08-12T06:10:36.527Z,45.01
2022-08-12T06:13:02.913Z,45.04
2022-08-12T06:15:29.308Z,45.08
2022-08-12T06:17:55.697Z,45.07
2022-08-12T06:20:28.724Z,45.11
2022-08-12T06:22:48.461Z,45.03
2022-08-12T06:25:17.494Z,45.10
2022-08-12T06:27:41.255Z,45.16
2022-08-12T06:30:13.417Z,45.27
2022-08-12T06:32:34.454Z,45.43
2022-08-12T06:35:24.994Z,45.51
2022-08-12T06:37:26.828Z,45.59
2022-08-12T06:39:53.390Z,45.69
2022-08-12T06:42:32.951Z,45.75
2022-08-12T06:44:46.124Z,45.77
2022-08-12T06:47:12.526Z,45.72
2022-08-12T06:49:38.912Z,45.72
2022-08-12T06:52:05.291Z,45.82
2022-08-12T06:54:32.468Z,45.88
2022-08-12T06:58:06.631Z,45.91
2022-08-12T06:59:24.478Z,45.95
2022-08-12T07:01:51.870Z,46.00
2022-08-12T07:04:35.898Z,46.01
2022-08-12T07:06:43.699Z,45.97
2022-08-12T07:09:16.231Z,46.02
2022-08-12T07:11:36.544Z,45.88
2022-08-12T07:14:12.226Z,46.01
2022-08-12T07:16:29.324Z,46.10
2022-08-12T07:18:55.708Z,46.10
2022-08-12T07:21:22.095Z,46.10
2022-08-12T07:23:48.544Z,46.11
2022-08-12T07:26:14.930Z,46.07
2022-08-12T07:28:41.330Z,46.07
2022-08-12T07:31:07.712Z,46.04
2022-08-12T07:33:34.206Z,45.96
2022-08-12T07:36:00.585Z,45.94
2022-08-12T07:38:28.997Z,45.91
2022-08-12T07:40:53.391Z,46.02
2022-08-12T07:43:19.779Z,45.99
2022-08-12T07:45:46.170Z,45.98
2022-08-12T07:48:12.551Z,45.98
2022-08-12T07:50:38.935Z,45.87
2022-08-12T07:53:05.310Z,45.88
2022-08-12T07:55:31.696Z,45.73
2022-08-12T07:57:58.110Z,45.98
2022-08-12T08:00:24.505Z,46.03
2022-08-12T08:02:50.895Z,45.84
2022-08-12T08:05:17.271Z,45.94
2022-08-12T08:07:43.660Z,45.84
2022-08-12T08:10:10.057Z,46.04
2022-08-12T08:12:36.456Z,46.01
2022-08-12T08:15:02.842Z,46.07
2022-08-12T08:17:29.229Z,45.89
2022-08-12T08:20:03.548Z,45.94
2022-08-12T08:22:32.053Z,46.04
2022-08-12T08:24:48.461Z,46.23
2022-08-12T08:27:14.853Z,46.20
2022-08-12T08:29:41.249Z,46.26
2022-08-12T08:32:07.649Z,46.29
2022-08-12T08:34:53.949Z,46.31
2022-08-12T08:37:04.008Z,46.39
2022-08-12T08:39:27.920Z,46.40
2022-08-12T08:42:17.086Z,46.36
2022-08-12T08:44:20.749Z,46.31
2022-08-12T08:46:47.277Z,46.23
2022-08-12T08:49:13.706Z,46.18
2022-08-12T08:51:40.079Z,46.32
2022-08-12T08:54:06.473Z,46.21
2022-08-12T08:56:32.851Z,46.04
2022-08-12T08:58:59.238Z,46.09
2022-08-12T09:01:25.709Z,46.05
2022-08-12T09:05:09.714Z,45.93
2022-08-12T09:06:18.438Z,45.91
2022-08-12T09:08:46.329Z,45.83
2022-08-12T09:11:11.220Z,45.78
2022-08-12T09:14:10.707Z,45.69
2022-08-12T09:16:04.005Z,45.72
2022-08-12T09:18:33.446Z,45.56
2022-08-12T09:20:56.889Z,45.53
2022-08-12T09:23:59.027Z,45.38
2022-08-12T09:25:49.679Z,45.45
2022-08-12T09:28:18.265Z,45.36
2022-08-12T09:30:42.858Z,45.28
2022-08-12T09:33:15.150Z,45.07
2022-08-12T09:35:43.041Z,45.04
2022-08-12T09:38:01.791Z,44.63
2022-08-12T09:40:56.122Z,44.76
2022-08-12T09:45:23.553Z,44.56
2022-08-12T09:47:59.098Z,44.56
2022-08-12T09:50:20.146Z,44.49
2022-08-12T09:52:40.177Z,44.21
2022-08-12T09:55:06.576Z,44.26
2022-08-12T09:58:45.515Z,44.19
2022-08-12T10:00:16.791Z,44.05
2022-08-12T10:02:49.813Z,44.14
2022-08-12T10:04:52.455Z,44.08
2022-08-12T10:07:24.986Z,44.02
2022-08-12T10:09:58.455Z,43.80
2022-08-12T10:12:13.134Z,43.72
2022-08-12T10:14:37.957Z,43.57
2022-08-12T10:17:04.358Z,43.64
2022-08-12T10:19:36.825Z,43.59
2022-08-12T10:21:57.159Z,43.63
2022-08-12T10:24:23.591Z,43.56
2022-08-12T10:26:49.993Z,43.64
2022-08-12T10:30:37.780Z,43.65
2022-08-12T10:31:47.034Z,43.47
2022-08-12T10:34:14.876Z,44.24
2022-08-12T10:36:40.894Z,43.39
2022-08-12T10:39:02.115Z,43.73
2022-08-12T10:41:57.905Z,43.66
2022-08-12T10:43:56.919Z,43.72
2022-08-12T10:46:21.285Z,43.69
2022-08-12T10:48:47.672Z,43.60
2022-08-12T10:52:04.804Z,43.46
2022-08-12T10:53:43.882Z,43.65
2022-08-12T10:56:06.835Z,43.88
2022-08-12T10:58:33.284Z,43.64
2022-08-12T11:01:25.697Z,43.52
2022-08-12T11:04:28.132Z,43.57
2022-08-12T11:07:06.908Z,43.27
2022-08-12T11:08:36.511Z,43.28
2022-08-12T11:10:45.755Z,43.22
2022-08-12T11:13:11.809Z,43.16
2022-08-12T11:16:19.073Z,43.08
2022-08-12T11:18:04.621Z,43.14
2022-08-12T11:20:31.429Z,43.14
2022-08-12T11:22:58.673Z,43.14
2022-08-12T11:25:23.903Z,43.14
2022-08-12T11:27:51.303Z,43.13
2022-08-12T11:30:30.959Z,43.13
2022-08-12T11:32:44.619Z,43.23
2022-08-12T11:35:11.687Z,43.20
2022-08-12T11:37:57.717Z,43.04
2022-08-12T11:40:02.539Z,42.98
2022-08-12T11:42:32.211Z,42.93
2022-08-12T11:44:55.326Z,42.93
2022-08-12T11:47:21.714Z,42.92
2022-08-12T11:49:51.911Z,43.02
2022-08-12T11:52:17.582Z,43.19
2022-08-12T11:54:40.880Z,43.11
2022-08-12T11:58:34.067Z,43.27
2022-08-12T12:02:05.038Z,43.37
2022-08-12T12:04:29.441Z,43.40
2022-08-12T12:06:53.298Z,43.36
2022-08-12T12:09:19.295Z,43.37
2022-08-12T12:11:48.866Z,43.46
2022-08-12T12:14:12.075Z,43.51
2022-08-12T12:16:39.986Z,43.53
2022-08-12T12:19:04.915Z,43.56
2022-08-12T12:21:47.034Z,43.61
2022-08-12T12:24:00.988Z,43.56
2022-08-12T12:26:35.276Z,43.50
2022-08-12T12:28:54.518Z,43.59
2022-08-12T12:32:09.191Z,43.66
2022-08-12T12:33:57.009Z,43.75
2022-08-12T12:36:20.562Z,43.81
2022-08-12T12:38:36.047Z,43.75
2022-08-12T12:41:14.227Z,43.72
2022-08-12T12:43:44.775Z,43.64
2022-08-12T12:45:55.266Z,43.69
2022-08-12T12:48:21.653Z,43.53
2022-08-12T12:50:51.406Z,43.52
2022-08-12T12:54:05.030Z,43.50
2022-08-12T12:55:40.828Z,43.56
2022-08-12T12:58:07.214Z,43.55
2022-08-12T13:00:33.607Z,43.62
2022-08-12T13:02:59.992Z,43.62
2022-08-12T13:05:27.901Z,43.82
2022-08-12T13:07:55.144Z,43.85
2022-08-12T13:10:23.900Z,44.01
2022-08-12T13:12:45.665Z,44.10
2022-08-12T13:15:12.057Z,44.12
2022-08-12T13:18:01.915Z,44.11
2022-08-12T13:20:04.830Z,44.20
2022-08-12T13:22:31.252Z,44.37
2022-08-12T13:24:57.644Z,44.42
2022-08-12T13:27:28.373Z,44.40
2022-08-12T13:29:50.415Z,44.37
2022-08-12T13:32:19.021Z,44.49
2022-08-12T13:34:43.275Z,44.33
2022-08-12T13:37:10.144Z,44.32
2022-08-12T13:39:36.136Z,44.40
2022-08-12T13:42:02.481Z,44.36
2022-08-12T13:44:28.874Z,44.22
2022-08-12T13:46:58.836Z,44.08
2022-08-12T13:49:54.557Z,43.84
2022-08-12T13:51:48.040Z,43.74
2022-08-12T13:54:14.427Z,43.61
2022-08-12T13:56:40.816Z,43.47
2022-08-12T13:59:08.441Z,43.15
2022-08-12T14:01:33.577Z,43.31
2022-08-12T14:04:00.009Z,43.18
2022-08-12T14:06:30.362Z,43.15
2022-08-12T14:08:52.772Z,43.09
2022-08-12T14:11:19.189Z,43.43
2022-08-12T14:14:05.472Z,43.76
2022-08-12T14:16:14.345Z,43.66
2022-08-12T14:18:38.336Z,43.70
2022-08-12T14:21:04.727Z,43.76
2022-08-12T14:24:05.081Z,43.24
2022-08-12T14:25:57.658Z,42.58
2022-08-12T14:28:24.166Z,42.63
2022-08-12T14:31:00.359Z,42.58
2022-08-12T14:33:17.007Z,43.53
2022-08-12T14:35:48.470Z,43.86
2022-08-12T14:38:12.257Z,43.92
2022-08-12T14:40:38.653Z,43.93
2022-08-12T14:43:06.358Z,43.65
2022-08-12T14:45:44.856Z,44.14
2022-08-12T14:47:58.664Z,44.33
2022-08-12T14:50:40.890Z,44.21
2022-08-12T14:57:56.515Z,44.65
2022-08-12T15:00:10.198Z,44.74
2022-08-12T15:02:36.211Z,44.59
2022-08-12T15:05:03.853Z,44.92
2022-08-12T15:07:34.221Z,44.56
2022-08-12T15:09:55.637Z,44.71
2022-08-12T15:12:24.757Z,44.46
2022-08-12T15:14:48.369Z,44.50
2022-08-12T15:17:19.805Z,44.36
2022-08-12T15:20:32.085Z,44.33
2022-08-12T15:22:37.642Z,43.74
2022-08-12T15:24:33.941Z,43.49
2022-08-12T15:27:00.329Z,43.88
2022-08-12T15:29:26.749Z,44.10
2022-08-12T15:31:59.778Z,43.99
2022-08-12T15:34:19.531Z,44.17
2022-08-12T15:36:55.097Z,44.00
2022-08-12T15:39:16.733Z,44.30
2022-08-12T15:41:50.381Z,44.58
2022-08-12T15:44:37.710Z,44.47
2022-08-12T15:46:32.374Z,44.53
2022-08-12T15:48:59.564Z,44.76
2022-08-12T15:51:24.273Z,44.78
2022-08-12T15:53:53.460Z,44.65
2022-08-12T15:56:17.149Z,44.91
2022-08-12T15:58:43.543Z,45.05
2022-08-12T16:01:09.936Z,44.95
2022-08-12T16:03:45.427Z,44.85
2022-08-12T16:06:19.372Z,44.27
2022-08-12T16:08:29.100Z,44.81
2022-08-12T16:10:55.596Z,44.56
2022-08-12T16:13:32.450Z,44.78
2022-08-12T16:16:01.470Z,44.74
2022-08-12T16:18:20.043Z,44.62
2022-08-12T16:20:41.486Z,44.21
2022-08-12T16:23:36.319Z,44.12
2022-08-12T16:26:02.881Z,43.96
2022-08-12T16:28:00.422Z,43.98
2022-08-12T16:30:29.448Z,44.07
2022-08-12T16:32:53.908Z,43.81
2022-08-12T16:35:20.095Z,43.95
2022-08-12T16:38:24.414Z,44.01
2022-08-12T16:40:12.892Z,43.88
2022-08-12T16:42:39.247Z,44.03
2022-08-12T16:45:05.645Z,44.14
2022-08-12T16:47:57.453Z,44.05
2022-08-12T16:49:58.416Z,43.99
2022-08-12T16:52:24.786Z,44.75
2022-08-12T16:54:51.168Z,45.09
2022-08-12T16:57:17.562Z,45.64
2022-08-12T16:59:53.365Z,46.37
2022-08-12T17:02:10.322Z,46.38
2022-08-12T17:04:36.704Z,46.35
2022-08-12T17:07:05.264Z,46.26
2022-08-12T17:09:39.904Z,46.04
2022-08-12T17:11:58.036Z,45.22
2022-08-12T17:14:24.921Z,45.06
2022-08-12T17:16:50.803Z,44.73
2022-08-12T17:19:17.185Z,44.64
2022-08-12T17:22:01.349Z,44.43
2022-08-12T17:24:09.951Z,44.37
2022-08-12T17:26:36.335Z,44.30
2022-08-12T17:29:02.713Z,44.27
2022-08-12T17:32:00.589Z,44.30
2022-08-12T17:33:58.169Z,44.21
2022-08-12T17:36:22.685Z,44.16
2022-08-12T17:38:50.816Z,44.12
2022-08-12T17:41:23.216Z,44.07
2022-08-12T17:43:57.312Z,44.09
2022-08-12T17:46:08.291Z,44.04
2022-08-12T17:48:38.744Z,44.05
2022-08-12T17:51:01.166Z,44.01
2022-08-12T17:53:27.544Z,43.91
2022-08-12T17:55:53.935Z,43.85
2022-08-12T17:58:21.409Z,43.90
2022-08-12T18:00:46.708Z,43.89
2022-08-12T18:03:13.081Z,43.70
2022-08-12T18:05:55.389Z,43.53
2022-08-12T18:08:05.845Z,43.44
2022-08-12T18:10:32.236Z,43.38
2022-08-12T18:12:58.645Z,43.37
2022-08-12T18:15:27.028Z,43.21
2022-08-12T18:17:51.396Z,43.17
2022-08-12T18:20:17.787Z,43.11
2022-08-12T18:22:44.372Z,42.94
2022-08-12T18:26:11.570Z,43.00
2022-08-12T18:27:44.892Z,42.84
2022-08-12T18:30:04.394Z,42.81
2022-08-12T18:32:44.304Z,42.73
2022-08-12T18:34:56.312Z,42.70
2022-08-12T18:37:41.564Z,42.67
2022-08-12T18:39:48.947Z,42.59
2022-08-12T18:42:15.384Z,42.53
2022-08-12T18:44:41.776Z,42.54
2022-08-12T18:47:09.220Z,42.49
2022-08-12T18:49:39.245Z,42.45
2022-08-12T18:52:02.316Z,42.42
2022-08-12T18:54:27.343Z,42.38
2022-08-12T18:56:53.729Z,42.41
2022-08-12T18:59:59.856Z,42.36
2022-08-12T19:02:19.963Z,42.45
2022-08-12T19:04:12.965Z,42.42
2022-08-12T19:06:39.344Z,42.40
2022-08-12T19:09:05.727Z,42.39
2022-08-12T19:11:32.104Z,42.37
2022-08-12T19:13:58.487Z,42.34
2022-08-12T19:16:24.869Z,42.31
2022-08-12T19:18:53.653Z,42.29
2022-08-12T19:21:20.375Z,42.33
2022-08-12T19:23:46.422Z,42.30
2022-08-12T19:26:13.292Z,42.34
2022-08-12T19:28:39.214Z,42.28
2022-08-12T19:31:05.596Z,42.27
2022-08-12T19:33:33.341Z,42.25
2022-08-12T19:36:24.491Z,42.26
2022-08-12T19:38:27.190Z,42.27
2022-08-12T19:40:51.176Z,42.18
2022-08-12T19:43:20.023Z,42.18
2022-08-12T19:45:48.722Z,42.20
2022-08-12T19:48:16.436Z,42.15
2022-08-12T19:50:36.690Z,42.15
2022-08-12T19:53:03.074Z,42.15
2022-08-12T19:55:29.460Z,42.17
2022-08-12T19:58:02.426Z,42.11
2022-08-12T20:00:22.313Z,42.11
2022-08-12T20:02:48.707Z,42.11
2022-08-12T20:06:05.932Z,42.10
2022-08-12T20:07:42.827Z,42.11
2022-08-12T20:10:07.844Z,42.13
2022-08-12T20:12:34.672Z,42.09
2022-08-12T20:15:00.608Z,42.08
2022-08-12T20:17:27.028Z,42.13
2022-08-12T20:20:16.952Z,42.08
2022-08-12T20:22:24.792Z,42.08
2022-08-12T20:24:46.176Z,42.07
2022-08-12T20:27:29.081Z,42.11
2022-08-12T20:29:45.659Z,42.12
2022-08-12T20:32:05.357Z,42.11
2022-08-12T20:34:34.231Z,42.10
2022-08-12T20:37:05.250Z,42.09
2022-08-12T20:39:53.228Z,42.09
2022-08-12T20:41:53.378Z,42.10
2022-08-12T20:44:19.810Z,42.17
2022-08-12T20:46:46.199Z,42.21
2022-08-12T20:49:17.330Z,42.18
2022-08-12T20:51:52.787Z,42.14
2022-08-12T20:54:05.357Z,42.24
2022-08-12T20:56:31.744Z,42.14
2022-08-12T20:58:58.125Z,42.15
2022-08-12T21:01:28.823Z,42.15
2022-08-12T21:03:52.719Z,42.20
2022-08-12T21:06:17.404Z,42.19
2022-08-12T21:08:43.836Z,42.19
2022-08-12T21:11:10.173Z,42.17
2022-08-12T21:13:39.342Z,42.21
2022-08-12T21:16:05.322Z,42.15
2022-08-12T21:18:31.890Z,42.18
2022-08-12T21:20:58.085Z,42.16
2022-08-12T21:23:25.549Z,42.19
2022-08-12T21:25:51.158Z,42.17
2022-08-12T21:28:17.270Z,42.17
2022-08-12T21:31:10.592Z,42.23
2022-08-12T21:33:14.520Z,42.24
2022-08-12T21:35:39.941Z,42.27
2022-08-12T21:38:02.833Z,42.31
2022-08-12T21:40:37.068Z,42.28
2022-08-12T21:42:55.623Z,42.24
2022-08-12T21:45:45.845Z,42.26
2022-08-12T21:47:53.284Z,42.27
2022-08-12T21:50:14.792Z,42.33
2022-08-12T21:52:42.140Z,42.32
2022-08-12T21:55:08.616Z,42.31
2022-08-12T21:57:36.457Z,42.34
2022-08-12T22:00:00.349Z,42.38
2022-08-12T22:02:30.934Z,42.39
2022-08-12T22:04:53.114Z,42.38
2022-08-12T22:07:19.494Z,42.41
2022-08-12T22:09:45.899Z,42.37
2022-08-12T22:12:12.282Z,42.38
2022-08-12T22:14:38.673Z,42.39
2022-08-12T22:17:06.358Z,42.44
2022-08-12T22:19:34.860Z,42.40
2022-08-12T22:21:58.819Z,42.41
2022-08-12T22:24:26.275Z,42.44
2022-08-12T22:26:50.597Z,42.44
2022-08-12T22:29:17.250Z,42.40
2022-08-12T22:31:43.360Z,42.41
2022-08-12T22:34:09.750Z,42.48
2022-08-12T22:36:36.128Z,42.40
2022-08-12T22:39:02.590Z,42.45
2022-08-12T22:41:28.973Z,42.50
2022-08-12T22:44:01.157Z,42.41
2022-08-12T22:46:26.630Z,42.48
2022-08-12T22:48:52.562Z,42.50
2022-08-12T22:51:16.957Z,42.52
2022-08-12T22:53:43.339Z,42.44
2022-08-12T22:56:09.738Z,42.50
2022-08-12T22:58:36.133Z,42.49
2022-08-12T23:01:03.576Z,42.45
2022-08-12T23:03:49.298Z,42.53
2022-08-12T23:06:09.934Z,42.49
2022-08-12T23:08:21.670Z,42.54
2022-08-12T23:10:48.275Z,42.53
2022-08-12T23:13:14.452Z,42.50
2022-08-12T23:15:40.819Z,42.56
2022-08-12T23:18:07.199Z,42.49
2022-08-12T23:20:33.576Z,42.56
2022-08-12T23:23:03.183Z,42.52
2022-08-12T23:25:54.214Z,42.62
2022-08-12T23:27:55.719Z,42.49
2022-08-12T23:30:25.214Z,42.53
2022-08-12T23:32:45.565Z,42.56
2022-08-12T23:35:18.845Z,42.60
2022-08-12T23:37:47.312Z,42.63
2022-08-12T23:40:15.744Z,42.64
2022-08-12T23:42:31.315Z,42.72
2022-08-12T23:44:57.545Z,42.57
2022-08-12T23:47:23.930Z,42.58
2022-08-12T23:49:57.053Z,42.63
2022-08-12T23:52:16.717Z,42.69
2022-08-12T23:54:44.467Z,42.62
2022-08-12T23:57:11.256Z,42.69
2022-08-12T23:59:35.981Z,42.68
